Time;durP1;ratioP1;P1;durP2;ratioP2;P2;SDS_P1;SDS_P2;PMS_P1;PMS_P2;Temp;Humidity;BMP_temperature;BMP_pressure;BME280_temperature;BME280_humidity;BME280_pressure;Samples;Min_cycle;Max_cycle;Signal;HPM_P1;HPM_P2
2022/02/26 00:00:16;;;;;;;0.50;0.50;;;0.50;1.40;;;0.96;100.00;96412.31;648103;212;31530;-73
2022/02/26 00:02:58;;;;;;;1.20;0.60;;;0.50;1.40;;;1.06;100.00;96414.59;646115;212;31494;-73
2022/02/26 00:05:43;;;;;;;0.50;0.50;;;0.50;1.40;;;1.06;100.00;96418.53;646987;212;31597;-74
2022/02/26 00:08:26;;;;;;;0.82;0.47;;;0.50;1.40;;;1.02;100.00;96416.17;634969;212;31710;-75
2022/02/26 00:11:08;;;;;;;0.60;0.50;;;0.60;1.40;;;1.02;100.00;96419.00;647107;216;31476;-74
2022/02/26 00:13:49;;;;;;;0.60;0.60;;;0.50;1.40;;;1.10;100.00;96421.95;646565;216;31534;-75
2022/02/26 00:16:33;;;;;;;0.40;0.30;;;0.60;1.40;;;1.13;100.00;96427.36;647242;212;31581;-72
2022/02/26 00:19:18;;;;;;;0.82;0.82;;;0.60;1.40;;;1.21;100.00;96430.22;647951;216;31833;-75
2022/02/26 00:21:59;;;;;;;0.70;0.40;;;0.60;1.40;;;1.25;100.00;96427.41;646421;212;32116;-73
2022/02/26 00:24:41;;;;;;;0.60;0.60;;;0.70;1.40;;;1.28;100.00;96427.59;618343;226;32010;-75
2022/02/26 00:27:23;;;;;;;1.50;1.40;;;0.70;1.40;;;1.29;100.00;96434.37;647380;216;31503;-73
2022/02/26 00:30:06;;;;;;;0.47;0.47;;;0.80;1.40;;;1.30;100.00;96431.71;647231;216;31559;-76
2022/02/26 00:32:47;;;;;;;0.50;0.40;;;0.80;1.40;;;1.35;100.00;96437.03;647059;212;32221;-73
2022/02/26 00:35:59;;;;;;;0.50;0.40;;;0.80;1.40;;;1.33;100.00;96435.54;646634;216;31575;-75
2022/02/26 00:38:39;;;;;;;1.50;0.75;;;0.80;1.40;;;1.31;100.00;96438.36;645678;212;42115;-75
2022/02/26 00:41:27;;;;;;;1.50;1.40;;;0.80;1.40;;;1.40;100.00;96445.68;646508;216;42750;-77
2022/02/26 00:44:15;;;;;;;1.50;0.60;;;0.80;1.40;;;1.35;100.00;96448.56;647637;216;31661;-73
2022/02/26 00:46:56;;;;;;;1.57;0.80;;;0.80;1.40;;;1.31;100.00;96455.66;647223;216;31532;-73
2022/02/26 00:52:28;;;;;;;0.70;0.62;;;0.80;1.40;;;1.36;100.00;96455.44;647509;216;31468;-76
2022/02/26 00:55:09;;;;;;;0.57;0.57;;;0.80;1.40;;;1.33;100.00;96451.92;646122;216;31527;-73
2022/02/26 00:57:51;;;;;;;1.75;0.90;;;0.80;1.40;;;1.15;100.00;96447.08;646679;212;31517;-75
2022/02/26 01:00:33;;;;;;;0.40;0.30;;;0.50;1.40;;;1.06;100.00;96457.50;646943;212;31514;-72
2022/02/26 01:03:14;;;;;;;3.10;0.80;;;0.50;1.40;;;1.05;100.00;96452.73;647199;213;31839;-72
2022/02/26 01:05:59;;;;;;;2.80;0.75;;;0.50;1.40;;;0.94;100.00;96457.12;646931;216;42282;-72
2022/02/26 01:08:41;;;;;;;0.55;0.55;;;0.30;1.40;;;0.80;100.00;96456.17;646061;216;42184;-75
2022/02/26 01:11:27;;;;;;;1.20;1.20;;;0.30;1.40;;;0.81;100.00;96456.86;648011;216;31505;-74
2022/02/26 01:14:15;;;;;;;1.90;0.43;;;0.30;1.40;;;0.80;100.00;96455.66;647609;216;31481;-77
2022/02/26 01:17:04;;;;;;;1.50;0.90;;;0.20;1.40;;;0.74;100.00;96456.43;646689;216;31551;-75
2022/02/26 01:19:45;;;;;;;1.60;0.70;;;0.20;1.40;;;0.78;100.00;96462.41;647160;216;32395;-75
2022/02/26 01:22:27;;;;;;;0.40;0.40;;;0.20;1.40;;;0.76;100.00;96464.48;647610;212;32165;-72
2022/02/26 01:25:09;;;;;;;4.10;0.50;;;0.20;1.40;;;0.72;100.00;96468.29;645568;212;31462;-72
2022/02/26 01:27:53;;;;;;;0.60;0.60;;;0.20;1.40;;;0.65;100.00;96473.74;646540;216;32042;-74
2022/02/26 01:30:35;;;;;;;0.50;0.50;;;0.10;1.40;;;0.64;100.00;96473.81;646452;216;31786;-72
2022/02/26 01:35:57;;;;;;;0.73;0.62;;;0.10;1.40;;;0.64;100.00;96472.18;618864;226;34096;-72
2022/02/26 01:38:38;;;;;;;0.60;0.60;;;0.10;1.40;;;0.60;100.00;96471.67;646155;216;31524;-72
2022/02/26 01:41:20;;;;;;;3.00;0.60;;;0.00;1.40;;;0.56;100.00;96469.84;646021;216;31498;-74
2022/02/26 01:44:02;;;;;;;0.50;0.47;;;0.00;1.40;;;0.51;100.00;96471.28;645983;216;31863;-73
2022/02/26 01:46:46;;;;;;;0.60;0.57;;;-0.10;1.40;;;0.51;100.00;96478.83;645647;216;31621;-73
2022/02/26 01:49:28;;;;;;;0.90;0.90;;;0.00;1.40;;;0.52;100.00;96478.05;647379;212;31644;-74
2022/02/26 01:52:10;;;;;;;0.50;0.50;;;-0.10;1.40;;;0.52;100.00;96484.71;646706;216;31735;-73
2022/02/26 01:54:55;;;;;;;0.40;0.40;;;-0.10;1.40;;;0.46;100.00;96482.11;645434;216;31538;-73
2022/02/26 01:57:38;;;;;;;0.93;0.68;;;-0.10;1.40;;;0.42;100.00;96486.73;646238;216;31462;-75
2022/02/26 02:00:26;;;;;;;0.60;0.50;;;-0.10;1.40;;;0.28;100.00;96482.86;648531;212;31621;-77
2022/02/26 02:03:08;;;;;;;0.60;0.60;;;-0.30;1.40;;;0.23;100.00;96491.44;646760;216;31628;-77
2022/02/26 02:05:50;;;;;;;3.40;0.50;;;-0.30;1.40;;;0.28;100.00;96489.16;646624;216;31546;-77
2022/02/26 02:08:37;;;;;;;0.40;0.40;;;-0.20;1.40;;;0.40;100.00;96489.48;634956;212;42277;-75
2022/02/26 02:11:21;;;;;;;0.70;0.40;;;-0.10;1.40;;;0.51;100.00;96489.27;646508;216;31527;-78
2022/02/26 02:14:03;;;;;;;1.10;0.82;;;0.00;1.40;;;0.67;100.00;96492.12;620723;226;31835;-78
2022/02/26 02:16:46;;;;;;;2.10;0.80;;;0.20;1.40;;;0.82;100.00;96493.02;645573;216;31535;-72
2022/02/26 02:19:28;;;;;;;0.50;0.50;;;0.30;1.40;;;0.95;100.00;96497.11;646483;212;31520;-73
2022/02/26 02:22:10;;;;;;;1.40;0.85;;;0.40;1.40;;;0.99;100.00;96498.25;647037;212;42136;-74
2022/02/26 02:24:54;;;;;;;0.50;0.30;;;0.50;1.40;;;1.07;100.00;96502.12;646960;216;31429;-72
2022/02/26 02:27:36;;;;;;;0.60;0.40;;;0.50;1.40;;;1.06;100.00;96503.95;618510;226;42526;-75
2022/02/26 02:30:18;;;;;;;0.50;0.40;;;0.50;1.40;;;1.08;100.00;96501.53;646955;216;31516;-72
2022/02/26 02:32:59;;;;;;;0.60;0.60;;;0.50;1.40;;;1.14;100.00;96507.84;647415;216;42158;-76
2022/02/26 02:35:51;;;;;;;0.50;0.50;;;0.50;1.40;;;1.11;100.00;96502.14;618535;226;31874;-73
2022/02/26 02:38:33;;;;;;;1.10;0.68;;;0.50;1.40;;;1.18;100.00;96504.17;646049;216;42201;-73
2022/02/26 02:41:21;;;;;;;0.80;0.40;;;0.50;1.40;;;1.27;100.00;96508.98;646835;212;31515;-77
2022/02/26 02:44:05;;;;;;;0.40;0.40;;;0.60;1.40;;;1.31;100.00;96504.92;647378;216;31625;-72
2022/02/26 02:46:49;;;;;;;0.90;0.40;;;0.60;1.40;;;1.38;100.00;96505.66;646422;216;31517;-74
2022/02/26 02:49:31;;;;;;;1.70;1.00;;;0.60;1.40;;;1.34;100.00;96512.33;646934;212;42183;-72
2022/02/26 02:52:15;;;;;;;1.80;0.50;;;0.60;1.40;;;1.45;100.00;96513.88;647254;216;42278;-77
2022/02/26 02:54:56;;;;;;;1.00;0.65;;;0.60;1.40;;;1.31;100.00;96517.84;647597;216;42326;-77
2022/02/26 02:57:44;;;;;;;0.40;0.30;;;0.60;1.40;;;1.36;100.00;96520.93;645899;216;31532;-75
2022/02/26 03:00:32;;;;;;;0.40;0.40;;;0.60;1.40;;;1.40;100.00;96523.41;646591;216;31546;-77
2022/02/26 03:03:17;;;;;;;0.80;0.50;;;0.60;1.40;;;1.49;100.00;96528.47;647530;216;42114;-74
2022/02/26 03:05:58;;;;;;;1.70;0.57;;;0.70;1.40;;;1.56;100.00;96529.04;647986;212;31763;-73
2022/02/26 03:08:40;;;;;;;3.80;0.90;;;0.70;1.40;;;1.53;100.00;96533.56;645976;216;32094;-73
2022/02/26 03:11:22;;;;;;;1.12;0.50;;;0.80;1.40;;;1.56;100.00;96535.95;646636;216;31460;-73
2022/02/26 03:14:03;;;;;;;0.40;0.40;;;0.80;1.40;;;1.55;100.00;96536.67;646423;216;31499;-74
2022/02/26 03:16:48;;;;;;;2.60;1.10;;;0.80;1.40;;;1.64;100.00;96537.45;646385;216;31536;-75
2022/02/26 03:19:33;;;;;;;0.52;0.52;;;0.80;1.40;;;1.59;100.00;96540.00;620513;223;32439;-78
2022/02/26 03:22:24;;;;;;;0.90;0.50;;;0.80;1.40;;;1.65;100.00;96544.25;647362;216;31659;-75
2022/02/26 03:25:06;;;;;;;1.20;1.08;;;0.80;1.40;;;1.67;100.00;96548.41;646815;212;31525;-73
2022/02/26 03:27:54;;;;;;;1.00;0.60;;;0.90;1.40;;;1.54;100.00;96548.81;647339;212;32156;-77
2022/02/26 03:30:42;;;;;;;0.55;0.55;;;0.80;1.40;;;1.47;100.00;96553.64;646975;216;32198;-73
2022/02/26 03:35:51;;;;;;;0.70;0.50;;;0.80;1.40;;;1.48;100.00;96555.03;618920;226;31939;-75
2022/02/26 03:38:42;;;;;;;1.17;0.70;;;0.80;1.40;;;1.52;100.00;96559.02;647084;212;42467;-77
2022/02/26 03:41:25;;;;;;;0.60;0.60;;;0.80;1.40;;;1.64;100.00;96566.13;645769;216;42127;-73
2022/02/26 03:44:08;;;;;;;0.60;0.40;;;0.80;1.40;;;1.50;100.00;96567.94;618729;222;32270;-73
2022/02/26 03:46:51;;;;;;;0.90;0.70;;;0.80;1.40;;;1.51;100.00;96569.68;646805;212;33457;-77
2022/02/26 03:49:39;;;;;;;1.70;0.70;;;0.80;1.40;;;1.54;100.00;96566.38;619318;226;31858;-75
2022/02/26 03:52:26;;;;;;;1.10;0.80;;;0.70;1.40;;;1.45;100.00;96574.37;647565;216;31997;-78
2022/02/26 03:55:17;;;;;;;1.47;0.67;;;0.70;1.40;;;1.44;100.00;96574.77;646956;216;31565;-73
2022/02/26 03:57:59;;;;;;;1.30;1.20;;;0.70;1.40;;;1.49;100.00;96578.17;646464;216;32068;-73
2022/02/26 04:00:46;;;;;;;0.60;0.40;;;0.70;1.40;;;1.46;100.00;96578.40;646052;216;31479;-77
2022/02/26 04:03:37;;;;;;;3.12;0.65;;;0.70;1.40;;;1.47;100.00;96579.57;646371;216;31513;-74
2022/02/26 04:06:19;;;;;;;1.10;1.00;;;0.70;1.40;;;1.46;100.00;96581.92;646150;216;31520;-72
2022/02/26 04:09:00;;;;;;;0.60;0.60;;;0.70;1.40;;;1.41;100.00;96580.92;645565;212;31522;-73
2022/02/26 04:11:44;;;;;;;1.48;0.60;;;0.70;1.40;;;1.33;100.00;96583.30;619578;226;31881;-78
2022/02/26 04:14:32;;;;;;;2.00;0.50;;;0.70;1.40;;;1.31;100.00;96582.75;645807;216;31446;-73
2022/02/26 04:17:13;;;;;;;0.82;0.77;;;0.70;1.40;;;1.31;100.00;96585.09;646691;212;31631;-73
2022/02/26 04:20:01;;;;;;;0.60;0.52;;;0.70;1.40;;;1.40;100.00;96589.77;631958;221;31687;-77
2022/02/26 04:22:45;;;;;;;1.10;0.60;;;0.60;1.40;;;1.44;100.00;96592.23;619786;222;31832;-73
2022/02/26 04:25:27;;;;;;;0.80;0.55;;;0.70;1.40;;;1.33;100.00;96589.81;646566;216;31500;-73
2022/02/26 04:28:08;;;;;;;0.40;0.30;;;0.70;1.40;;;1.26;100.00;96589.08;647108;216;31603;-75
2022/02/26 04:30:53;;;;;;;0.50;0.40;;;0.70;1.40;;;1.28;100.00;96588.87;646688;213;31826;-74
2022/02/26 04:35:51;;;;;;;0.52;0.45;;;0.60;1.40;;;1.30;100.00;96596.13;647209;212;31557;-75
2022/02/26 04:38:35;;;;;;;2.80;0.70;;;0.60;1.40;;;1.42;100.00;96592.97;646323;212;31482;-75
2022/02/26 04:41:15;;;;;;;0.62;0.62;;;0.70;1.40;;;1.35;100.00;96593.34;646072;216;31517;-75
2022/02/26 04:43:59;;;;;;;0.80;0.60;;;0.60;1.40;;;1.31;100.00;96595.95;615902;226;31933;-72
2022/02/26 04:46:41;;;;;;;0.60;0.50;;;0.60;1.40;;;1.38;100.00;96599.31;645509;216;32974;-73
2022/02/26 04:49:23;;;;;;;1.20;0.70;;;0.60;1.40;;;1.34;100.00;96599.89;646677;216;32084;-73
2022/02/26 04:52:05;;;;;;;0.40;0.28;;;0.60;1.40;;;1.31;100.00;96605.25;646851;212;31469;-73
2022/02/26 04:54:47;;;;;;;0.50;0.40;;;0.60;1.40;;;1.43;100.00;96605.20;647537;216;31546;-72
2022/02/26 04:57:35;;;;;;;0.60;0.50;;;0.60;1.40;;;1.37;100.00;96600.67;650984;212;31499;-77
2022/02/26 05:00:22;;;;;;;1.35;1.27;;;0.60;1.40;;;1.38;100.00;96606.56;650241;216;42802;-73
2022/02/26 05:03:04;;;;;;;0.70;0.40;;;0.60;1.40;;;1.37;100.00;96606.77;646072;216;31501;-75
2022/02/26 05:05:46;;;;;;;0.60;0.60;;;0.60;1.40;;;1.30;100.00;96613.97;650575;212;31524;-75
2022/02/26 05:08:27;;;;;;;0.40;0.40;;;0.60;1.40;;;1.33;100.00;96612.45;625096;222;31833;-73
2022/02/26 05:11:14;;;;;;;0.43;0.43;;;0.60;1.40;;;1.38;100.00;96611.05;599312;233;32349;-73
2022/02/26 05:13:56;;;;;;;0.85;0.60;;;0.60;1.40;;;1.30;100.00;96615.20;615900;221;31899;-75
2022/02/26 05:16:37;;;;;;;0.50;0.50;;;0.60;1.40;;;1.35;100.00;96620.98;645901;216;31640;-76
2022/02/26 05:19:22;;;;;;;2.40;1.10;;;0.60;1.40;;;1.40;100.00;96622.25;645152;212;42107;-73
2022/02/26 05:22:04;;;;;;;0.40;0.22;;;0.60;1.40;;;1.35;100.00;96633.67;651609;216;31567;-72
2022/02/26 05:24:49;;;;;;;0.90;0.80;;;0.60;1.40;;;1.37;100.00;96625.94;647061;212;31609;-72
2022/02/26 05:27:30;;;;;;;0.50;0.45;;;0.60;1.40;;;1.40;100.00;96629.40;647925;216;31653;-73
2022/02/26 05:32:58;;;;;;;0.70;0.70;;;0.60;1.40;;;1.41;100.00;96634.07;644473;216;31597;-72
2022/02/26 05:35:51;;;;;;;0.50;0.50;;;0.60;1.40;;;1.37;100.00;96641.55;651050;216;31502;-72
2022/02/26 05:38:33;;;;;;;0.43;0.35;;;0.60;1.40;;;1.38;100.00;96643.65;650069;212;31540;-73
2022/02/26 05:41:15;;;;;;;0.90;0.90;;;0.60;1.40;;;1.47;100.00;96653.02;646857;216;31620;-73
2022/02/26 05:43:56;;;;;;;0.60;0.60;;;0.60;1.40;;;1.40;100.00;96653.92;648936;216;31640;-73
2022/02/26 05:46:38;;;;;;;0.40;0.30;;;0.60;1.40;;;1.40;100.00;96657.23;650172;216;31559;-75
2022/02/26 05:49:20;;;;;;;4.10;0.55;;;0.60;1.40;;;1.46;100.00;96658.61;646073;216;31825;-72
2022/02/26 05:52:01;;;;;;;0.60;0.60;;;0.70;1.40;;;1.41;100.00;96658.12;617628;226;32118;-73
2022/02/26 05:54:43;;;;;;;0.80;0.57;;;0.70;1.40;;;1.42;100.00;96665.28;649145;216;31616;-73
2022/02/26 05:57:25;;;;;;;1.30;0.70;;;0.70;1.40;;;1.39;100.00;96664.54;645262;216;31670;-72
2022/02/26 06:00:07;;;;;;;0.50;0.50;;;0.70;1.40;;;1.40;100.00;96673.31;646325;216;31660;-72
2022/02/26 06:02:49;;;;;;;3.90;0.70;;;0.70;1.40;;;1.45;100.00;96675.20;644238;212;31563;-74
2022/02/26 06:05:30;;;;;;;0.60;0.60;;;0.70;1.40;;;1.46;100.00;96677.33;647503;216;31919;-73
2022/02/26 06:08:15;;;;;;;0.90;0.70;;;0.70;1.40;;;1.44;100.00;96679.05;619059;222;42540;-72
2022/02/26 06:10:57;;;;;;;1.00;0.70;;;0.70;1.40;;;1.42;100.00;96681.25;650272;212;31515;-73
2022/02/26 06:13:38;;;;;;;0.50;0.50;;;0.70;1.40;;;1.45;100.00;96687.31;646320;216;31499;-72
2022/02/26 06:16:23;;;;;;;1.75;0.70;;;0.70;1.40;;;1.34;100.00;96684.66;618746;223;42513;-72
2022/02/26 06:19:05;;;;;;;0.80;0.80;;;0.70;1.40;;;1.39;100.00;96692.05;648154;212;31510;-72
2022/02/26 06:21:50;;;;;;;0.70;0.70;;;0.70;1.40;;;1.44;100.00;96697.33;618489;222;32389;-72
2022/02/26 06:24:31;;;;;;;1.40;0.77;;;0.70;1.40;;;1.42;100.00;96700.16;647728;216;32099;-74
2022/02/26 06:27:16;;;;;;;3.58;0.90;;;0.70;1.40;;;1.39;100.00;96702.34;648934;216;31487;-78
2022/02/26 06:30:04;;;;;;;1.77;1.12;;;0.70;1.40;;;1.39;100.00;96704.42;619253;222;32558;-72
2022/02/26 06:32:46;;;;;;;1.52;1.00;;;0.70;1.40;;;1.48;100.00;96709.50;647527;216;31744;-72
2022/02/26 06:35:52;;;;;;;1.40;1.08;;;0.70;1.40;;;1.47;100.00;96707.55;645043;216;31526;-75
2022/02/26 06:38:33;;;;;;;2.50;0.80;;;0.70;1.40;;;1.54;100.00;96708.77;648019;212;31506;-75
2022/02/26 06:41:15;;;;;;;0.40;0.40;;;0.70;1.40;;;1.48;100.00;96708.06;649033;212;31516;-72
2022/02/26 06:43:57;;;;;;;2.97;0.57;;;0.70;1.40;;;1.57;100.00;96713.14;646228;211;31492;-72
2022/02/26 06:46:39;;;;;;;0.70;0.62;;;0.80;1.40;;;1.52;100.00;96713.45;645623;212;32211;-72
2022/02/26 06:49:20;;;;;;;1.00;0.80;;;0.80;1.40;;;1.53;100.00;96717.06;644692;212;31515;-72
2022/02/26 06:52:02;;;;;;;0.62;0.60;;;0.80;1.40;;;1.59;100.00;96723.09;650006;212;32142;-72
2022/02/26 06:54:44;;;;;;;5.10;0.62;;;0.80;1.40;;;1.69;100.00;96724.73;647994;216;32141;-75
2022/02/26 06:57:26;;;;;;;1.20;0.85;;;0.80;1.40;;;1.70;100.00;96725.50;652621;216;42701;-74
2022/02/26 07:00:08;;;;;;;0.60;0.40;;;0.80;1.40;;;1.68;100.00;96733.51;647073;212;42619;-73
2022/02/26 07:02:52;;;;;;;0.70;0.60;;;0.90;1.40;;;1.82;100.00;96737.31;646195;216;31535;-78
2022/02/26 07:05:40;;;;;;;1.30;1.20;;;0.90;1.40;;;1.80;100.00;96742.12;645237;216;31980;-72
2022/02/26 07:08:21;;;;;;;0.95;0.62;;;0.90;1.40;;;1.80;100.00;96745.16;638395;212;31862;-72
2022/02/26 07:11:03;;;;;;;3.50;1.00;;;1.00;1.40;;;1.93;100.00;96746.84;646294;216;31845;-73
2022/02/26 07:13:45;;;;;;;0.80;0.80;;;1.00;1.40;;;1.96;100.00;96749.89;646675;212;42478;-73
2022/02/26 07:16:27;;;;;;;0.70;0.70;;;1.00;1.40;;;2.11;100.00;96748.88;648958;212;31647;-74
2022/02/26 07:19:08;;;;;;;1.25;0.98;;;1.10;1.40;;;1.86;100.00;96758.33;650458;216;32269;-73
2022/02/26 07:21:50;;;;;;;3.15;1.77;;;1.00;1.40;;;1.95;100.00;96767.33;652011;212;32292;-73
2022/02/26 07:24:31;;;;;;;1.80;0.95;;;1.10;1.40;;;2.04;100.00;96762.16;650849;212;32080;-73
2022/02/26 07:27:17;;;;;;;0.70;0.70;;;1.10;1.40;;;2.06;100.00;96764.03;648508;216;31509;-72
2022/02/26 07:29:58;;;;;;;1.10;1.00;;;1.10;1.40;;;2.04;100.00;96770.29;620797;226;31994;-74
2022/02/26 07:32:45;;;;;;;0.82;0.82;;;1.10;1.40;;;1.97;100.00;96771.25;621819;222;32736;-76
2022/02/26 07:35:57;;;;;;;0.40;0.40;;;1.00;1.40;;;1.72;100.00;96775.30;646627;212;31697;-75
2022/02/26 07:38:41;;;;;;;0.57;0.50;;;0.80;1.40;;;1.77;100.00;96775.67;650182;216;31526;-73
2022/02/26 07:44:00;;;;;;;0.50;0.50;;;0.90;1.40;;;1.98;100.00;96784.27;648546;216;31568;-73
2022/02/26 07:48:33;;;;;;;0.55;0.47;;;1.10;1.40;;;2.07;100.00;96785.95;645397;216;42436;-76
2022/02/26 07:51:17;;;;;;;1.20;1.10;;;1.10;1.40;;;2.40;100.00;96787.92;648217;212;31607;-73
2022/02/26 07:53:59;;;;;;;2.00;1.43;;;1.20;1.40;;;2.41;100.00;96791.82;649073;216;31574;-75
2022/02/26 07:56:47;;;;;;;1.30;1.15;;;1.30;1.40;;;2.48;100.00;96792.52;621969;226;31845;-76
2022/02/26 07:59:28;;;;;;;0.88;0.88;;;1.30;1.40;;;2.47;100.00;96796.45;647618;212;31612;-76
2022/02/26 08:02:19;;;;;;;1.20;1.10;;;1.40;1.40;;;2.59;100.00;96794.28;647401;216;31449;-75
2022/02/26 08:05:07;;;;;;;0.93;0.82;;;1.50;1.40;;;2.78;100.00;96799.63;643850;212;31576;-76
2022/02/26 08:07:53;;;;;;;1.55;1.00;;;1.50;1.40;;;2.77;100.00;96798.60;649144;216;31532;-77
2022/02/26 08:10:35;;;;;;;0.80;0.70;;;1.70;1.40;;;3.11;100.00;96797.02;648637;212;31538;-76
2022/02/26 08:13:17;;;;;;;1.00;0.70;;;1.70;1.40;;;3.23;100.00;96797.23;651851;216;31508;-76
2022/02/26 08:16:08;;;;;;;2.28;2.17;;;1.80;1.40;;;3.46;100.00;96796.67;644697;213;32017;-73
2022/02/26 08:18:53;;;;;;;0.60;0.60;;;1.90;1.40;;;3.60;100.00;96800.64;647699;216;31647;-76
2022/02/26 08:21:36;;;;;;;1.73;1.08;;;2.00;1.40;;;3.29;100.00;96801.84;647099;216;31550;-76
2022/02/26 08:24:17;;;;;;;1.20;0.77;;;2.00;1.40;;;3.32;100.00;96805.81;645852;216;31522;-76
2022/02/26 08:26:59;;;;;;;1.80;0.90;;;2.00;1.40;;;3.26;100.00;96802.75;618520;222;32094;-76
2022/02/26 08:29:43;;;;;;;3.87;2.10;;;2.00;1.40;;;3.48;100.00;96804.14;646913;216;31524;-76
2022/02/26 08:32:25;;;;;;;1.30;1.20;;;2.20;1.40;;;3.57;100.00;96803.48;646798;216;31565;-76
2022/02/26 08:35:52;;;;;;;0.90;0.90;;;2.40;1.40;;;3.70;100.00;96808.83;648709;216;42820;-76
2022/02/26 08:38:34;;;;;;;1.60;1.30;;;2.50;1.40;;;3.64;100.00;96809.43;645926;216;31532;-75
2022/02/26 08:41:17;;;;;;;1.80;1.40;;;2.50;1.40;;;3.88;100.00;96809.60;647701;216;31527;-77
2022/02/26 08:43:58;;;;;;;2.87;1.77;;;2.70;1.40;;;4.26;100.00;96812.94;620659;226;31963;-76
2022/02/26 08:46:43;;;;;;;1.25;1.10;;;2.90;1.40;;;4.35;100.00;96808.72;646685;212;42231;-76
2022/02/26 08:49:24;;;;;;;2.70;1.08;;;2.90;1.40;;;4.23;100.00;96818.02;643834;216;31628;-76
2022/02/26 08:52:10;;;;;;;4.22;1.02;;;2.80;1.40;;;4.40;100.00;96817.13;648000;216;31519;-76
2022/02/26 08:54:51;;;;;;;1.30;0.80;;;2.80;1.40;;;4.18;100.00;96825.39;647874;212;31592;-76
2022/02/26 08:57:33;;;;;;;1.75;0.93;;;2.60;1.40;;;3.84;100.00;96828.21;623848;225;31895;-76
2022/02/26 09:00:16;;;;;;;2.47;0.80;;;2.60;1.40;;;4.64;100.00;96823.45;648310;216;31583;-76
2022/02/26 09:02:57;;;;;;;0.80;0.80;;;3.10;1.40;;;4.95;100.00;96821.43;646540;216;42149;-76
2022/02/26 09:05:45;;;;;;;2.10;1.60;;;3.30;1.40;;;5.24;100.00;96823.08;646336;212;32119;-75
2022/02/26 09:08:33;;;;;;;1.03;0.77;;;3.70;1.40;;;5.46;100.00;96823.19;641176;215;34511;-76
2022/02/26 09:11:15;;;;;;;1.87;1.10;;;3.80;1.40;;;5.87;100.00;96820.44;644374;216;31570;-77
2022/02/26 09:14:03;;;;;;;1.30;0.82;;;4.20;1.40;;;6.04;100.00;96822.20;644717;216;31538;-76
2022/02/26 09:16:45;;;;;;;0.90;0.60;;;4.10;1.40;;;5.83;100.00;96822.56;646951;216;31533;-73
2022/02/26 09:19:29;;;;;;;1.00;0.90;;;4.10;1.40;;;5.46;100.00;96828.63;647983;212;31633;-76
2022/02/26 09:22:11;;;;;;;0.80;0.50;;;4.00;1.40;;;5.64;100.00;96830.20;618554;222;34865;-76
2022/02/26 09:24:53;;;;;;;1.52;1.42;;;4.30;1.40;;;6.06;100.00;96825.36;617924;226;44530;-77
2022/02/26 09:27:35;;;;;;;1.80;0.70;;;4.30;1.40;;;6.23;99.39;96831.41;648398;216;32000;-74
2022/02/26 09:30:16;;;;;;;1.00;0.90;;;4.70;1.40;;;6.08;98.37;96825.41;648301;216;31590;-74
2022/02/26 09:32:58;;;;;;;0.70;0.70;;;4.50;1.40;;;5.95;98.59;96823.25;622063;226;31899;-74
2022/02/26 09:35:55;;;;;;;1.75;0.88;;;4.80;1.40;;;7.09;100.00;96821.38;619834;223;31936;-76
2022/02/26 09:38:39;;;;;;;2.77;1.07;;;5.60;1.40;;;9.79;88.79;96811.64;649359;216;31835;-77
2022/02/26 09:41:22;;;;;;;2.15;0.90;;;10.40;1.40;;;10.16;75.21;96813.64;619501;226;31917;-76
2022/02/26 09:44:04;;;;;;;2.80;1.00;;;10.00;1.40;;;11.24;73.16;96811.32;645965;216;31558;-77
2022/02/26 09:46:46;;;;;;;1.40;0.93;;;9.70;1.40;;;11.97;67.98;96810.59;649065;216;34870;-74
2022/02/26 09:49:28;;;;;;;2.20;0.90;;;9.00;1.40;;;12.67;64.19;96811.88;646550;216;31540;-75
2022/02/26 09:52:10;;;;;;;0.65;0.57;;;9.40;1.40;;;13.34;62.92;96805.81;647623;212;32227;-74
2022/02/26 09:54:51;;;;;;;2.22;0.80;;;11.20;1.40;;;15.76;57.01;96803.48;646686;212;31516;-75
2022/02/26 09:57:37;;;;;;;2.40;1.20;;;11.70;1.40;;;13.83;56.25;96804.18;647185;216;32045;-75
2022/02/26 10:00:19;;;;;;;2.40;0.90;;;11.00;1.40;;;11.47;53.31;96812.64;646476;216;32531;-75
2022/02/26 10:03:04;;;;;;;3.20;1.00;;;8.90;1.40;;;10.95;59.74;96811.09;646996;216;31531;-74
2022/02/26 10:06:04;;;;;;;2.05;1.08;;;6.70;1.40;;;9.39;64.12;96820.52;645591;212;31588;-76
2022/02/26 10:08:50;;;;;;;2.20;1.20;;;5.30;1.40;;;8.12;71.13;96825.82;647735;216;31546;-75
2022/02/26 10:11:35;;;;;;;1.15;0.88;;;4.90;1.40;;;7.34;74.08;96824.53;619947;226;31981;-76
2022/02/26 10:14:16;;;;;;;3.20;1.10;;;4.40;1.40;;;6.67;81.62;96826.33;620483;222;32156;-75
2022/02/26 10:16:50;;;;;;;2.67;1.07;;;4.20;1.40;;;7.04;81.80;96825.80;610969;229;32159;-77
2022/02/26 10:19:37;;;;;;;1.12;0.85;;;4.10;1.40;;;6.29;82.83;96831.56;646020;216;31543;-74
2022/02/26 10:22:25;;;;;;;3.30;0.80;;;3.70;1.40;;;4.98;84.93;96836.33;647531;212;31643;-75
2022/02/26 10:25:10;;;;;;;1.00;0.90;;;3.20;1.40;;;4.86;85.74;96834.67;647124;216;31622;-76
2022/02/26 10:27:58;;;;;;;3.27;0.50;;;3.10;1.40;;;4.50;86.61;96847.83;645284;216;31907;-74
2022/02/26 10:30:42;;;;;;;1.80;0.60;;;3.00;1.40;;;4.25;88.01;96844.48;645258;212;31847;-75
2022/02/26 10:35:54;;;;;;;0.90;0.68;;;3.00;1.40;;;4.48;88.79;96840.42;647711;216;31566;-76
2022/02/26 10:38:35;;;;;;;2.87;0.65;;;3.40;1.40;;;4.48;87.40;96838.13;647082;216;42111;-74
2022/02/26 10:41:18;;;;;;;2.80;0.77;;;3.50;1.40;;;5.09;86.22;96838.53;648168;212;31729;-76
2022/02/26 10:44:06;;;;;;;0.55;0.50;;;3.70;1.40;;;4.80;84.02;96837.84;645491;216;42375;-73
2022/02/26 10:46:50;;;;;;;1.70;0.70;;;3.70;1.40;;;5.07;83.58;96830.75;646285;212;31661;-74
2022/02/26 10:49:42;;;;;;;4.20;1.08;;;3.90;1.40;;;5.27;84.81;96832.50;642818;216;31475;-76
2022/02/26 10:52:25;;;;;;;1.30;0.50;;;4.00;1.40;;;5.23;83.97;96831.02;648139;216;42517;-76
2022/02/26 10:55:07;;;;;;;1.40;0.90;;;3.90;1.40;;;5.08;85.15;96824.59;647259;212;42276;-76
2022/02/26 10:57:48;;;;;;;1.20;0.40;;;4.00;1.40;;;5.23;83.94;96824.68;647696;216;31493;-76
2022/02/26 11:00:31;;;;;;;1.80;0.50;;;4.20;1.40;;;5.27;83.30;96822.50;646006;212;31615;-76
2022/02/26 11:03:13;;;;;;;1.77;0.75;;;4.30;1.40;;;5.56;82.74;96816.89;620004;222;42529;-75
2022/02/26 11:05:55;;;;;;;2.70;0.50;;;4.60;1.40;;;5.71;77.48;96815.26;646724;216;31757;-75
2022/02/26 11:08:37;;;;;;;1.65;0.68;;;5.00;1.40;;;6.71;75.35;96807.44;647920;212;31528;-76
2022/02/26 11:11:25;;;;;;;3.60;0.90;;;5.80;1.40;;;8.32;70.07;96811.02;645752;216;31574;-76
2022/02/26 11:14:13;;;;;;;1.30;0.83;;;8.20;1.40;;;10.34;63.67;96799.47;619866;222;31831;-76
2022/02/26 11:16:57;;;;;;;1.60;0.80;;;9.60;1.40;;;11.99;56.90;96794.87;646945;212;31541;-77
2022/02/26 11:19:38;;;;;;;0.90;0.60;;;11.70;1.40;;;13.85;52.25;96784.75;646544;216;31567;-76
2022/02/26 11:22:20;;;;;;;1.60;0.90;;;11.50;1.40;;;15.39;47.42;96780.16;648086;216;42133;-74
2022/02/26 11:25:02;;;;;;;2.65;0.45;;;11.80;1.40;;;13.40;47.22;96790.63;646893;216;31515;-75
2022/02/26 11:27:43;;;;;;;1.70;0.70;;;8.80;1.40;;;11.89;48.87;96795.22;646903;212;31534;-75
2022/02/26 11:30:25;;;;;;;2.20;0.90;;;7.10;1.40;;;11.10;54.53;96793.67;647378;212;32075;-74
2022/02/26 11:35:56;;;;;;;2.00;0.70;;;6.20;1.40;;;10.07;57.04;96791.94;646726;216;31552;-74
2022/02/26 11:38:45;;;;;;;0.90;0.60;;;6.40;1.40;;;8.32;56.07;96794.48;649025;212;38011;-74
2022/02/26 11:41:27;;;;;;;1.30;0.80;;;5.60;1.40;;;8.62;56.75;96795.36;646310;216;42670;-77
2022/02/26 11:44:09;;;;;;;3.17;0.93;;;5.80;1.40;;;7.22;59.56;96799.97;645904;212;31510;-76
2022/02/26 11:46:50;;;;;;;3.20;1.03;;;5.30;1.40;;;7.38;61.40;96790.38;647234;216;31529;-74
2022/02/26 11:49:32;;;;;;;1.70;0.60;;;5.40;1.40;;;7.78;60.69;96782.64;646783;216;42095;-76
2022/02/26 11:52:17;;;;;;;0.60;0.40;;;5.30;1.40;;;6.78;63.55;96780.31;647289;212;31745;-75
2022/02/26 11:54:59;;;;;;;2.87;0.60;;;5.10;1.40;;;6.13;64.20;96776.01;647548;212;31629;-75
2022/02/26 11:57:43;;;;;;;1.92;0.85;;;4.90;1.40;;;5.71;68.39;96779.86;647407;216;42165;-75
2022/02/26 12:00:25;;;;;;;1.70;0.60;;;4.70;1.40;;;5.84;70.19;96779.22;647124;216;31525;-76
2022/02/26 12:03:17;;;;;;;4.10;0.70;;;4.80;1.40;;;6.25;66.56;96775.32;647545;212;31542;-75
2022/02/26 12:06:28;;;;;;;2.40;0.70;;;4.70;1.40;;;6.45;61.79;96774.21;618174;226;32136;-75